CheckWX is a tool to help pilots better visualize weather data.  It is not intended as a substitute for an official pre-flight weather briefing.

17:23:42 UTC

KCMD METAR
Cullman Regional-Folsom Field Airport
Cullman, Alabama, USA
Current

9 mins ago

KCMD 181715Z AUTO 07004KT 10SM CLR 17/03 A3003 RMK AO2 T01690031
Observed
Oct-18 @ 17:15 UTC
Wind
  • 070° at 4 KTS
Visibility
10 SM
Flight Rules
VFR
Cloud Levels
  • Clear skies
Temperature
17°C / 63°F
Dewpoint
C / 37°F
Humidity
39%
Altimeter
30.03" Hg
Pressure
1016.92 hPa
Previous

29 mins ago

KCMD 181655Z AUTO 08005KT 10SM CLR 16/03 A3004 RMK AO2 T01620032
Observed
Oct-18 @ 16:55 UTC
Wind
  • 080° at 5 KTS
Visibility
10 SM
Flight Rules
VFR
Cloud Levels
  • Clear skies
Temperature
16°C / 61°F
Dewpoint
C / 37°F
Humidity
42%
Altimeter
30.04" Hg
Pressure
1017.32 hPa
Previous

49 mins ago

KCMD 181635Z AUTO 12007KT 10SM CLR 16/03 A3004 RMK AO2 T01630033
Observed
Oct-18 @ 16:35 UTC
Wind
  • 120° at 7 KTS
Visibility
10 SM
Flight Rules
VFR
Cloud Levels
  • Clear skies
Temperature
16°C / 61°F
Dewpoint
C / 37°F
Humidity
42%
Altimeter
30.04" Hg
Pressure
1017.32 hPa